Time;durP1;ratioP1;P1;durP2;ratioP2;P2;SDS_P1;SDS_P2;PMS_P1;PMS_P2;Temp;Humidity;BMP_temperature;BMP_pressure;BME280_temperature;BME280_humidity;BME280_pressure;Samples;Min_cycle;Max_cycle;Signal;HPM_P1;HPM_P2
2023/06/15 00:00:57;;;;;;;6.32;4.13;;;16.80;99.90;;;;;;5034149;28;20392;-70
2023/06/15 00:04:01;;;;;;;7.40;4.18;;;16.90;99.90;;;;;;5034098;28;20037;-70
2023/06/15 00:07:05;;;;;;;10.23;4.10;;;16.90;99.90;;;;;;5034049;28;20091;-70
2023/06/15 00:10:10;;;;;;;14.85;5.07;;;17.00;99.90;;;;;;5033865;28;20056;-70
2023/06/15 00:13:15;;;;;;;10.73;4.07;;;17.00;99.90;;;;;;5033561;28;20053;-70
2023/06/15 00:16:19;;;;;;;13.30;4.68;;;16.80;99.90;;;;;;5033527;28;20044;-71
2023/06/15 00:19:24;;;;;;;8.88;4.55;;;16.80;99.90;;;;;;5033719;28;20048;-70
2023/06/15 00:22:28;;;;;;;8.23;4.50;;;16.60;99.90;;;;;;5033115;28;20048;-70
2023/06/15 00:25:33;;;;;;;10.48;5.47;;;16.70;99.90;;;;;;5033576;28;20049;-70
2023/06/15 00:28:37;;;;;;;6.35;4.68;;;16.70;99.90;;;;;;5033024;28;20056;-70
2023/06/15 00:31:41;;;;;;;9.50;4.60;;;16.80;99.90;;;;;;5033015;28;20044;-70
2023/06/15 00:34:47;;;;;;;8.35;5.00;;;16.70;99.90;;;;;;5032021;28;20052;-70
2023/06/15 00:37:52;;;;;;;7.20;4.88;;;16.70;99.90;;;;;;5033498;28;20049;-70
2023/06/15 00:40:58;;;;;;;10.73;4.82;;;16.80;99.90;;;;;;5032488;28;20041;-69
2023/06/15 00:44:02;;;;;;;7.72;4.32;;;16.80;99.90;;;;;;5033288;28;20407;-70
2023/06/15 00:47:06;;;;;;;12.15;4.78;;;16.80;99.90;;;;;;5034024;28;20072;-69
2023/06/15 00:50:14;;;;;;;9.07;3.85;;;16.80;99.90;;;;;;5033050;28;20506;-69
2023/06/15 00:53:19;;;;;;;4.85;3.95;;;16.80;99.90;;;;;;5031713;28;20048;-70
2023/06/15 00:56:23;;;;;;;9.27;4.40;;;16.80;99.90;;;;;;5032766;28;20048;-69
2023/06/15 00:59:28;;;;;;;11.07;4.50;;;16.80;99.90;;;;;;5032533;28;20080;-69
2023/06/15 01:02:34;;;;;;;5.45;3.13;;;16.90;99.90;;;;;;5033058;28;20053;-70
2023/06/15 01:05:38;;;;;;;9.25;3.95;;;16.80;99.90;;;;;;5032261;28;20044;-70
2023/06/15 01:08:49;;;;;;;7.10;3.30;;;16.80;99.90;;;;;;5033018;28;20255;-70
2023/06/15 01:11:56;;;;;;;7.00;3.97;;;16.80;99.90;;;;;;5032013;28;20058;-69
2023/06/15 01:15:01;;;;;;;11.05;3.60;;;16.70;99.90;;;;;;5032743;28;20056;-70
2023/06/15 01:18:05;;;;;;;4.80;3.63;;;16.80;99.90;;;;;;5033003;28;20064;-70
2023/06/15 01:21:09;;;;;;;8.73;3.72;;;16.80;99.90;;;;;;5032718;28;20052;-70
2023/06/15 01:24:35;;;;;;;11.95;5.40;;;16.70;99.90;;;;;;5031428;28;20057;-70
2023/06/15 01:27:41;;;;;;;12.40;4.57;;;16.80;99.90;;;;;;5032605;28;20040;-71
2023/06/15 01:30:48;;;;;;;10.68;4.18;;;16.80;99.90;;;;;;5032443;28;20056;-70
2023/06/15 01:33:52;;;;;;;7.07;4.60;;;16.70;99.90;;;;;;5032197;28;20062;-70
2023/06/15 01:36:56;;;;;;;6.97;4.72;;;16.80;99.90;;;;;;5032053;28;20056;-71
2023/06/15 01:40:02;;;;;;;8.25;4.80;;;16.80;99.90;;;;;;5031512;28;20515;-69
2023/06/15 01:43:11;;;;;;;8.95;4.68;;;16.80;99.90;;;;;;5031230;28;20415;-69
2023/06/15 01:46:17;;;;;;;7.78;5.22;;;16.80;99.90;;;;;;5032290;28;20052;-69
2023/06/15 01:49:21;;;;;;;13.82;4.72;;;16.80;99.90;;;;;;5032117;28;20052;-69
2023/06/15 01:52:25;;;;;;;9.95;4.82;;;16.70;99.90;;;;;;5030856;28;20392;-70
2023/06/15 01:55:30;;;;;;;6.47;4.93;;;16.70;99.90;;;;;;5030821;28;20056;-70
2023/06/15 01:58:34;;;;;;;12.40;4.93;;;16.60;99.90;;;;;;5031883;28;20500;-70
2023/06/15 02:01:38;;;;;;;7.38;5.45;;;16.60;99.90;;;;;;5030598;28;20052;-71
2023/06/15 02:04:42;;;;;;;7.95;5.70;;;16.40;99.90;;;;;;5030551;28;20530;-70
2023/06/15 02:07:46;;;;;;;9.88;6.30;;;16.30;99.90;;;;;;5030788;28;20052;-70
2023/06/15 02:10:50;;;;;;;10.57;5.88;;;16.30;99.90;;;;;;5030878;28;20048;-71
2023/06/15 02:13:54;;;;;;;12.30;6.38;;;16.30;99.90;;;;;;5030578;28;20045;-71
2023/06/15 02:16:59;;;;;;;12.38;7.13;;;16.30;99.90;;;;;;5030395;28;20040;-71
2023/06/15 02:20:04;;;;;;;15.18;7.30;;;16.20;99.90;;;;;;5030330;28;20049;-70
2023/06/15 02:23:08;;;;;;;10.60;6.35;;;16.30;99.90;;;;;;5031522;28;20047;-70
2023/06/15 02:26:12;;;;;;;17.67;7.32;;;16.30;99.90;;;;;;5030941;28;20049;-70
2023/06/15 02:29:16;;;;;;;11.63;7.50;;;16.40;99.90;;;;;;5031381;28;20052;-71
2023/06/15 02:32:42;;;;;;;8.85;6.47;;;16.40;99.90;;;;;;5031436;28;20057;-71
2023/06/15 02:35:47;;;;;;;22.08;6.63;;;16.40;99.90;;;;;;5029775;28;20044;-71
2023/06/15 02:38:53;;;;;;;12.55;6.78;;;16.40;99.90;;;;;;5030168;28;20045;-69
2023/06/15 02:41:57;;;;;;;11.95;5.90;;;16.40;99.90;;;;;;5029593;28;20049;-71
2023/06/15 02:45:02;;;;;;;11.80;6.60;;;16.50;99.90;;;;;;5029920;28;20423;-71
2023/06/15 02:48:08;;;;;;;12.98;5.68;;;16.50;99.90;;;;;;5029634;28;20052;-72
2023/06/15 02:51:12;;;;;;;11.70;6.05;;;16.50;99.90;;;;;;5030971;28;20499;-72
2023/06/15 02:54:16;;;;;;;11.82;6.10;;;16.40;99.90;;;;;;5030646;28;20049;-70
2023/06/15 02:57:20;;;;;;;15.68;6.07;;;16.50;99.90;;;;;;5029463;28;20044;-71
2023/06/15 03:00:48;;;;;;;11.35;6.10;;;16.50;99.90;;;;;;5029646;28;20491;-69
2023/06/15 03:03:58;;;;;;;14.70;6.75;;;16.50;99.90;;;;;;5029567;28;20495;-71
2023/06/15 03:07:03;;;;;;;10.23;6.40;;;16.40;99.90;;;;;;5029556;28;20396;-70
2023/06/15 03:10:27;;;;;;;7.97;5.38;;;16.40;99.90;;;;;;5024782;28;20492;-70
2023/06/15 03:13:32;;;;;;;7.13;4.95;;;16.40;99.90;;;;;;5029890;28;20045;-70
2023/06/15 03:16:40;;;;;;;7.50;4.78;;;16.60;99.90;;;;;;5028679;28;20400;-72
2023/06/15 03:19:47;;;;;;;9.05;5.10;;;16.60;99.90;;;;;;5029495;28;20052;-70
2023/06/15 03:22:52;;;;;;;9.65;5.47;;;16.50;99.90;;;;;;5029569;28;20036;-71
2023/06/15 03:25:55;;;;;;;9.10;5.38;;;16.40;99.90;;;;;;5029729;28;20054;-69
2023/06/15 03:29:02;;;;;;;10.60;5.30;;;16.50;99.90;;;;;;5029312;28;20407;-70
2023/06/15 03:32:08;;;;;;;10.05;4.97;;;16.50;99.90;;;;;;5029221;28;20433;-70
2023/06/15 03:35:13;;;;;;;10.55;5.47;;;16.50;99.90;;;;;;5029158;28;20076;-71
2023/06/15 03:38:20;;;;;;;10.32;5.30;;;16.50;99.90;;;;;;5029255;28;20041;-69
2023/06/15 03:41:27;;;;;;;9.98;4.80;;;16.60;99.90;;;;;;5029716;28;20052;-70
2023/06/15 03:44:32;;;;;;;11.75;5.00;;;16.60;99.90;;;;;;5029356;28;20037;-69
2023/06/15 03:47:37;;;;;;;6.43;4.30;;;16.60;99.90;;;;;;5029381;28;20203;-69
2023/06/15 03:50:41;;;;;;;11.43;5.10;;;16.60;99.90;;;;;;5030263;28;20045;-69
2023/06/15 03:53:46;;;;;;;4.82;4.32;;;16.60;99.90;;;;;;5028897;28;20048;-70
2023/06/15 03:56:50;;;;;;;6.00;4.70;;;16.10;99.90;;;;;;5028383;28;20056;-71
2023/06/15 03:59:55;;;;;;;9.30;4.30;;;16.60;99.90;;;;;;5028930;28;20047;-70
2023/06/15 04:02:58;;;;;;;8.57;4.57;;;16.70;99.90;;;;;;5029185;28;20399;-70
2023/06/15 04:06:04;;;;;;;11.57;5.18;;;16.70;99.90;;;;;;5029238;28;20041;-70
2023/06/15 04:09:08;;;;;;;7.15;4.70;;;16.80;99.90;;;;;;5028842;28;20045;-70
2023/06/15 04:12:11;;;;;;;9.90;4.75;;;16.90;99.90;;;;;;5028793;28;20048;-70
2023/06/15 04:15:16;;;;;;;6.68;4.63;;;16.90;99.90;;;;;;5029155;28;20407;-70
2023/06/15 04:18:23;;;;;;;6.57;4.38;;;16.90;99.90;;;;;;5029292;28;20048;-70
2023/06/15 04:21:28;;;;;;;10.07;5.30;;;17.00;99.90;;;;;;5029896;28;20347;-71
2023/06/15 04:24:33;;;;;;;9.93;4.90;;;17.00;99.90;;;;;;5029068;28;20037;-69
2023/06/15 04:27:39;;;;;;;9.80;5.18;;;17.10;99.90;;;;;;5028676;28;20391;-71
2023/06/15 04:30:52;;;;;;;23.40;5.35;;;17.10;99.90;;;;;;5032424;28;20044;-70
2023/06/15 04:33:58;;;;;;;7.15;4.35;;;17.20;99.90;;;;;;5032552;28;20052;-70
2023/06/15 04:37:07;;;;;;;10.18;4.15;;;17.30;99.90;;;;;;5031521;28;20399;-70
2023/06/15 04:40:12;;;;;;;5.63;4.30;;;18.10;99.90;;;;;;5032673;28;20039;-71
2023/06/15 04:43:16;;;;;;;8.50;3.72;;;18.70;99.90;;;;;;5033014;28;20043;-71
2023/06/15 04:46:23;;;;;;;6.03;3.75;;;20.70;99.90;;;;;;5032517;28;20053;-71
2023/06/15 04:49:27;;;;;;;5.30;2.83;;;23.00;99.90;;;;;;5032742;28;20491;-71
2023/06/15 04:52:31;;;;;;;10.98;2.83;;;24.10;99.90;;;;;;5033456;28;20048;-71
2023/06/15 04:55:35;;;;;;;9.70;2.95;;;27.00;99.90;;;;;;5032058;28;20140;-72
2023/06/15 04:58:39;;;;;;;9.73;2.50;;;26.10;99.90;;;;;;5032634;28;20048;-71
2023/06/15 05:01:43;;;;;;;3.92;2.35;;;26.20;99.90;;;;;;5032259;28;20047;-71
2023/06/15 05:04:59;;;;;;;6.45;2.78;;;26.30;99.90;;;;;;5032177;28;20040;-71
2023/06/15 05:08:04;;;;;;;7.07;3.38;;;26.20;99.90;;;;;;5032077;28;20498;-72
2023/06/15 05:11:09;;;;;;;6.90;2.78;;;27.20;99.90;;;;;;5031892;28;20380;-71
2023/06/15 05:14:13;;;;;;;5.32;3.00;;;28.10;99.90;;;;;;5032504;28;20052;-72
2023/06/15 05:17:17;;;;;;;4.68;3.22;;;28.60;99.90;;;;;;5031992;28;20052;-73
2023/06/15 05:20:22;;;;;;;4.07;3.05;;;29.00;99.90;;;;;;5032170;28;20048;-72
2023/06/15 05:23:27;;;;;;;6.47;3.13;;;29.70;99.90;;;;;;5031767;28;20052;-72
2023/06/15 05:26:32;;;;;;;6.85;3.22;;;30.30;99.90;;;;;;5033115;28;20052;-73
2023/06/15 05:29:45;;;;;;;4.15;2.83;;;29.90;99.90;;;;;;5030983;28;20044;-71
2023/06/15 05:32:51;;;;;;;3.83;2.95;;;30.40;99.90;;;;;;5030825;28;20539;-72
2023/06/15 05:35:55;;;;;;;6.35;3.58;;;29.00;99.90;;;;;;5031263;28;20053;-70
2023/06/15 05:38:59;;;;;;;6.40;4.28;;;27.70;99.90;;;;;;5030790;28;20041;-72
2023/06/15 05:42:04;;;;;;;6.20;3.80;;;26.60;99.90;;;;;;5031379;28;20044;-71
2023/06/15 05:45:10;;;;;;;10.32;5.55;;;25.70;99.90;;;;;;5019658;28;20507;-71
2023/06/15 05:48:15;;;;;;;5.25;3.80;;;25.30;99.90;;;;;;5031657;28;20049;-71
2023/06/15 05:51:19;;;;;;;5.00;4.07;;;25.30;99.90;;;;;;5019170;28;20049;-71
2023/06/15 05:54:23;;;;;;;9.02;3.95;;;24.90;99.90;;;;;;5031886;28;20422;-71
2023/06/15 05:57:28;;;;;;;4.78;3.97;;;24.70;99.90;;;;;;5049498;28;20040;-69
2023/06/15 06:00:33;;;;;;;6.10;3.80;;;25.50;99.90;;;;;;5031125;28;20423;-70
2023/06/15 06:03:38;;;;;;;7.13;4.30;;;26.10;99.90;;;;;;5022935;28;20044;-70
2023/06/15 06:06:42;;;;;;;5.32;4.18;;;24.60;99.90;;;;;;5031396;28;20040;-73
2023/06/15 06:09:46;;;;;;;4.35;3.90;;;25.10;99.90;;;;;;5030652;28;20254;-70
2023/06/15 06:12:52;;;;;;;5.78;4.80;;;25.30;99.90;;;;;;5028087;28;20032;-71
2023/06/15 06:15:56;;;;;;;7.05;4.78;;;23.20;99.90;;;;;;5050934;28;20071;-71
2023/06/15 06:19:02;;;;;;;6.00;4.72;;;23.80;99.90;;;;;;5042262;28;20048;-71
2023/06/15 06:22:06;;;;;;;7.72;5.80;;;24.10;99.90;;;;;;5049516;28;20052;-71
2023/06/15 06:25:11;;;;;;;8.68;5.32;;;24.70;99.90;;;;;;5050346;28;20044;-71
2023/06/15 06:28:15;;;;;;;8.45;4.82;;;25.10;99.90;;;;;;5050179;28;20371;-72
2023/06/15 06:31:19;;;;;;;6.32;4.70;;;25.80;99.90;;;;;;5051548;28;20055;-71
2023/06/15 06:34:23;;;;;;;9.65;4.82;;;26.20;99.90;;;;;;5050377;28;20494;-72
2023/06/15 06:37:27;;;;;;;7.82;4.80;;;26.50;99.90;;;;;;5046100;28;20633;-72
2023/06/15 06:40:31;;;;;;;6.15;4.80;;;26.90;99.90;;;;;;5044820;28;20076;-71
2023/06/15 06:43:36;;;;;;;11.55;5.05;;;27.50;99.90;;;;;;5043096;28;20047;-71
2023/06/15 06:46:40;;;;;;;5.72;4.50;;;27.80;99.90;;;;;;5045736;28;20044;-72
2023/06/15 06:49:44;;;;;;;8.20;4.30;;;28.30;99.90;;;;;;5049117;28;20047;-72
2023/06/15 06:52:48;;;;;;;6.00;4.00;;;28.70;99.90;;;;;;5045937;28;20104;-73
2023/06/15 06:55:52;;;;;;;8.30;4.30;;;29.90;99.90;;;;;;5041122;28;20036;-70
2023/06/15 06:58:56;;;;;;;7.90;4.45;;;27.40;99.90;;;;;;5045396;28;20051;-72
2023/06/15 07:02:00;;;;;;;6.05;5.00;;;27.90;99.90;;;;;;5048056;28;20399;-71
2023/06/15 07:05:04;;;;;;;5.50;4.13;;;29.20;99.90;;;;;;5031403;28;20040;-72
2023/06/15 07:08:08;;;;;;;5.97;3.35;;;30.50;99.90;;;;;;5043198;28;20048;-72
2023/06/15 07:11:19;;;;;;;5.75;4.28;;;31.20;99.90;;;;;;5126612;27;20188;-58
2023/06/15 07:14:24;;;;;;;6.95;4.05;;;31.40;99.90;;;;;;5119800;28;20023;-56
2023/06/15 07:17:28;;;;;;;4.53;3.38;;;31.80;99.90;;;;;;5126409;28;20032;-56
2023/06/15 07:20:32;;;;;;;8.18;4.20;;;31.70;99.90;;;;;;5124880;28;20035;-57
2023/06/15 07:23:36;;;;;;;10.90;4.03;;;30.10;99.90;;;;;;5114376;28;20039;-56
2023/06/15 07:26:40;;;;;;;11.30;3.75;;;30.60;99.90;;;;;;5109100;28;20047;-57
2023/06/15 07:29:45;;;;;;;7.03;3.65;;;30.80;99.90;;;;;;5110972;28;20045;-57
2023/06/15 07:32:49;;;;;;;4.50;3.13;;;32.70;99.90;;;;;;5116799;28;20482;-57
2023/06/15 07:35:53;;;;;;;4.38;3.20;;;34.10;99.90;;;;;;5122309;28;20035;-56
2023/06/15 07:38:57;;;;;;;7.03;3.58;;;34.60;99.90;;;;;;5118101;28;20032;-58
2023/06/15 07:42:01;;;;;;;8.73;3.58;;;35.20;99.60;;;;;;5119824;28;20031;-56
2023/06/15 07:45:06;;;;;;;5.88;3.38;;;36.20;99.30;;;;;;5127596;28;20036;-57
2023/06/15 07:48:10;;;;;;;7.40;3.70;;;36.70;97.80;;;;;;5122512;28;20043;-58
2023/06/15 07:51:14;;;;;;;7.25;3.92;;;37.30;97.60;;;;;;5119038;28;20048;-56
2023/06/15 07:54:19;;;;;;;4.80;3.70;;;36.30;96.30;;;;;;5116472;28;20031;-58
2023/06/15 07:57:23;;;;;;;5.97;3.28;;;36.50;96.00;;;;;;5118613;28;20399;-58
2023/06/15 08:00:27;;;;;;;4.90;3.20;;;36.50;95.80;;;;;;5115353;28;20797;-58
2023/06/15 08:03:38;;;;;;;3.72;3.15;;;37.40;94.40;;;;;;5120173;28;20035;-59
2023/06/15 08:06:42;;;;;;;8.13;3.47;;;38.60;93.50;;;;;;5114465;28;20036;-58
2023/06/15 08:09:46;;;;;;;6.20;3.58;;;38.90;91.70;;;;;;5114407;28;20043;-58
2023/06/15 08:12:49;;;;;;;5.95;3.15;;;39.20;91.70;;;;;;5119708;28;20027;-57
2023/06/15 08:15:53;;;;;;;4.53;3.50;;;38.50;89.60;;;;;;5113246;28;20028;-59
2023/06/15 08:18:57;;;;;;;5.47;3.75;;;38.00;87.00;;;;;;5115074;28;20040;-56
2023/06/15 08:22:02;;;;;;;7.38;3.78;;;37.10;90.50;;;;;;5104499;28;20689;-57
2023/06/15 08:25:08;;;;;;;3.63;3.30;;;37.60;89.90;;;;;;5103309;28;20040;-57
2023/06/15 08:28:13;;;;;;;3.97;3.10;;;38.30;91.30;;;;;;5104844;28;20528;-58
2023/06/15 08:31:17;;;;;;;6.38;3.28;;;39.40;90.70;;;;;;5105295;27;20040;-57
2023/06/15 08:34:21;;;;;;;3.55;3.17;;;38.20;90.10;;;;;;5098319;28;20374;-57
2023/06/15 08:37:26;;;;;;;3.78;3.35;;;37.90;91.50;;;;;;5098310;28;20027;-58
2023/06/15 08:40:30;;;;;;;6.25;3.58;;;37.90;91.90;;;;;;5099050;28;20031;-57
2023/06/15 08:43:34;;;;;;;7.57;3.25;;;38.50;91.60;;;;;;5108300;28;20481;-57
2023/06/15 08:46:42;;;;;;;4.95;3.90;;;38.60;91.40;;;;;;5109031;28;20043;-55
2023/06/15 08:49:47;;;;;;;6.30;4.10;;;37.80;91.60;;;;;;5100206;28;20040;-57
2023/06/15 08:52:51;;;;;;;6.55;4.30;;;35.90;92.60;;;;;;5103694;28;20449;-56
2023/06/15 08:55:56;;;;;;;8.95;4.00;;;34.30;93.70;;;;;;5102492;28;20028;-56
2023/06/15 08:58:59;;;;;;;5.85;4.18;;;34.10;94.20;;;;;;5098241;28;20050;-57
2023/06/15 09:02:06;;;;;;;9.77;3.92;;;35.30;93.10;;;;;;5105913;28;20041;-53
2023/06/15 09:05:10;;;;;;;5.53;4.28;;;35.20;93.00;;;;;;5093425;28;20482;-56
2023/06/15 09:08:14;;;;;;;7.60;4.03;;;33.80;93.70;;;;;;5096176;28;20043;-57
2023/06/15 09:11:18;;;;;;;5.85;3.78;;;33.20;93.70;;;;;;5097072;28;20032;-57
2023/06/15 09:14:22;;;;;;;4.88;3.83;;;35.50;92.70;;;;;;5101013;28;20036;-57
2023/06/15 09:17:27;;;;;;;10.05;3.75;;;36.70;91.80;;;;;;5097176;28;20513;-53
2023/06/15 09:20:38;;;;;;;5.05;3.72;;;38.50;90.40;;;;;;5094233;28;20446;-57
2023/06/15 09:23:44;;;;;;;5.13;3.50;;;39.60;91.00;;;;;;5096180;28;20035;-58
2023/06/15 09:26:48;;;;;;;4.47;3.40;;;38.90;90.60;;;;;;5103577;28;20470;-54
2023/06/15 09:30:07;;;;;;;4.38;3.85;;;37.70;90.90;;;;;;5094009;28;20039;-57
2023/06/15 09:33:12;;;;;;;6.40;3.60;;;37.30;91.80;;;;;;5095743;28;20036;-56
2023/06/15 09:36:16;;;;;;;6.22;3.63;;;38.40;90.80;;;;;;5101225;28;20768;-57
2023/06/15 09:39:25;;;;;;;7.65;3.97;;;36.70;91.30;;;;;;5097724;28;20486;-53
2023/06/15 09:42:28;;;;;;;4.63;3.30;;;37.40;91.80;;;;;;5099421;28;20395;-56
2023/06/15 09:45:32;;;;;;;5.82;3.88;;;39.30;91.10;;;;;;5093203;28;20031;-57
2023/06/15 09:48:40;;;;;;;5.93;3.50;;;39.00;90.50;;;;;;5103622;28;20019;-57
2023/06/15 09:51:47;;;;;;;7.10;3.90;;;37.40;90.80;;;;;;5091327;28;20036;-57
2023/06/15 09:54:55;;;;;;;8.98;4.07;;;37.50;91.20;;;;;;5098462;28;20027;-56
2023/06/15 09:57:59;;;;;;;8.15;3.80;;;37.90;91.00;;;;;;5096905;28;20032;-55
2023/06/15 10:01:04;;;;;;;5.90;3.85;;;36.00;91.40;;;;;;5101427;28;20036;-56
2023/06/15 10:04:09;;;;;;;4.82;4.38;;;33.90;93.10;;;;;;5091158;28;20051;-57
2023/06/15 10:07:18;;;;;;;5.18;4.32;;;32.70;93.70;;;;;;5101430;28;20047;-56
2023/06/15 10:10:24;;;;;;;4.38;3.97;;;33.40;94.30;;;;;;5101973;28;20392;-56
2023/06/15 10:13:35;;;;;;;7.85;4.07;;;32.60;93.40;;;;;;5100745;28;20034;-57
2023/06/15 10:16:40;;;;;;;8.65;4.47;;;33.70;93.50;;;;;;5091817;28;20518;-56
2023/06/15 10:19:49;;;;;;;11.07;4.55;;;32.80;92.90;;;;;;5101958;28;20042;-57
2023/06/15 10:23:05;;;;;;;5.05;4.28;;;32.50;93.60;;;;;;5101437;28;20413;-56
2023/06/15 10:26:09;;;;;;;7.25;3.80;;;35.50;93.00;;;;;;5105794;28;20044;-57
2023/06/15 10:29:38;;;;;;;7.57;3.40;;;38.00;91.20;;;;;;5120425;22;20040;-54
2023/06/15 10:32:42;;;;;;;10.60;3.08;;;39.30;90.10;;;;;;5067789;28;20056;-51
2023/06/15 10:35:56;;;;;;;4.72;2.80;;;40.20;87.80;;;;;;5063637;28;20043;-58
2023/06/15 10:39:27;;;;;;;6.40;3.13;;;39.80;86.70;;;;;;5059470;28;20040;-51
2023/06/15 10:42:46;;;;;;;4.43;2.95;;;39.80;86.50;;;;;;5049681;28;20045;-56
2023/06/15 10:45:52;;;;;;;3.83;2.95;;;39.60;86.50;;;;;;5057210;28;20033;-58
2023/06/15 10:49:05;;;;;;;6.53;2.92;;;37.50;88.50;;;;;;5067577;28;20036;-58
2023/06/15 10:52:13;;;;;;;5.95;3.00;;;35.50;90.20;;;;;;5067324;28;20051;-55
2023/06/15 10:55:22;;;;;;;5.22;3.00;;;33.90;91.40;;;;;;5065733;28;20397;-56
2023/06/15 10:58:28;;;;;;;3.03;2.72;;;34.90;91.50;;;;;;5059612;28;20048;-56
2023/06/15 11:01:32;;;;;;;6.03;3.00;;;36.20;90.20;;;;;;5064514;28;20047;-57
2023/06/15 11:04:36;;;;;;;5.38;2.35;;;37.60;90.20;;;;;;5063581;28;20036;-55
2023/06/15 11:07:48;;;;;;;3.65;2.33;;;39.00;88.20;;;;;;5063895;28;20044;-57
2023/06/15 11:10:52;;;;;;;3.38;2.40;;;40.10;86.30;;;;;;5065358;28;20040;-56
2023/06/15 11:14:05;;;;;;;4.30;2.60;;;40.50;87.40;;;;;;5066285;28;20402;-54
2023/06/15 11:17:09;;;;;;;2.75;2.20;;;39.30;85.50;;;;;;5062733;28;20033;-57
2023/06/15 11:20:38;;;;;;;4.50;2.50;;;37.00;87.30;;;;;;5065728;28;20045;-58
2023/06/15 11:23:45;;;;;;;3.78;2.42;;;35.80;87.10;;;;;;5068744;28;20055;-51
2023/06/15 11:26:50;;;;;;;6.78;2.88;;;34.10;89.70;;;;;;5069178;28;20040;-56
2023/06/15 11:29:57;;;;;;;3.33;2.25;;;33.90;90.00;;;;;;5062822;28;20048;-61
2023/06/15 11:33:01;;;;;;;3.50;2.55;;;33.30;90.30;;;;;;5063958;28;20037;-57
2023/06/15 11:36:07;;;;;;;3.75;2.80;;;33.80;90.30;;;;;;5063946;28;20388;-53
2023/06/15 11:39:19;;;;;;;3.90;2.08;;;34.10;89.50;;;;;;5064118;28;20047;-55
2023/06/15 11:42:23;;;;;;;3.13;2.38;;;34.80;89.10;;;;;;5060747;28;20037;-52
2023/06/15 11:45:28;;;;;;;6.57;2.38;;;34.70;89.70;;;;;;5059730;28;20032;-57
2023/06/15 11:48:32;;;;;;;6.78;2.65;;;34.00;90.30;;;;;;5049424;28;20036;-53
2023/06/15 11:51:36;;;;;;;4.85;2.80;;;34.10;90.60;;;;;;5063314;28;20052;-54
2023/06/15 11:54:41;;;;;;;3.45;2.65;;;34.30;91.20;;;;;;5064189;28;20032;-51
2023/06/15 11:57:45;;;;;;;3.30;2.70;;;34.00;91.10;;;;;;5069938;28;20039;-54
2023/06/15 12:00:50;;;;;;;3.55;2.30;;;34.40;90.50;;;;;;5053663;28;20659;-51
2023/06/15 12:03:54;;;;;;;5.50;2.80;;;34.60;90.00;;;;;;5061972;28;20045;-52
2023/06/15 12:07:01;;;;;;;4.32;2.70;;;34.10;89.70;;;;;;5068233;28;20047;-54
2023/06/15 12:10:06;;;;;;;5.10;2.85;;;34.70;88.10;;;;;;5068170;28;20052;-56
2023/06/15 12:13:12;;;;;;;5.15;2.75;;;34.80;90.30;;;;;;5070868;28;20040;-52
2023/06/15 12:16:16;;;;;;;6.07;3.13;;;34.80;89.70;;;;;;5067768;28;20039;-52
2023/06/15 12:19:20;;;;;;;5.32;2.97;;;34.50;89.90;;;;;;5068931;28;20039;-57
2023/06/15 12:22:42;;;;;;;3.78;3.08;;;34.30;89.50;;;;;;5068130;28;20055;-54
2023/06/15 12:25:47;;;;;;;3.83;2.65;;;34.30;89.40;;;;;;5063559;28;20047;-51
2023/06/15 12:28:51;;;;;;;4.72;3.05;;;33.40;90.10;;;;;;5070267;28;20063;-55
2023/06/15 12:31:55;;;;;;;4.00;2.95;;;33.30;90.90;;;;;;5064284;28;20028;-55
2023/06/15 12:34:59;;;;;;;4.68;3.17;;;33.70;92.00;;;;;;5066694;28;20048;-56
2023/06/15 12:38:07;;;;;;;3.63;2.85;;;34.00;90.90;;;;;;5066401;28;20059;-57
2023/06/15 12:41:15;;;;;;;4.95;3.10;;;33.80;91.10;;;;;;5061178;28;20513;-53
2023/06/15 12:44:20;;;;;;;4.47;3.33;;;34.10;90.70;;;;;;5063815;28;20047;-49
2023/06/15 12:47:25;;;;;;;7.85;3.53;;;34.00;89.90;;;;;;5065591;28;20055;-54
2023/06/15 12:50:30;;;;;;;3.65;3.25;;;33.90;90.00;;;;;;5064516;28;20039;-55
2023/06/15 12:53:34;;;;;;;3.42;3.03;;;32.90;90.50;;;;;;5068263;28;20043;-55
2023/06/15 12:56:38;;;;;;;4.18;3.22;;;32.90;90.60;;;;;;5068492;28;20036;-55
2023/06/15 12:59:42;;;;;;;5.95;3.00;;;32.70;90.80;;;;;;5066043;28;20055;-55
2023/06/15 13:02:46;;;;;;;6.13;3.15;;;33.00;91.70;;;;;;5065021;28;20052;-57
2023/06/15 13:05:50;;;;;;;5.03;2.70;;;33.30;91.40;;;;;;5067157;28;20394;-52
2023/06/15 13:08:54;;;;;;;7.05;3.17;;;33.20;91.30;;;;;;5063332;28;20039;-55
2023/06/15 13:11:58;;;;;;;5.25;3.35;;;32.90;90.50;;;;;;5066470;28;20044;-54
2023/06/15 13:15:06;;;;;;;8.95;3.08;;;32.90;91.00;;;;;;5065332;28;20051;-52
2023/06/15 13:18:13;;;;;;;4.05;3.03;;;32.50;91.00;;;;;;5068605;28;20035;-55
2023/06/15 13:21:17;;;;;;;6.68;3.17;;;31.70;91.50;;;;;;5068405;28;20529;-57
2023/06/15 13:24:21;;;;;;;6.30;3.60;;;31.20;91.80;;;;;;5071086;28;20052;-55
2023/06/15 13:27:25;;;;;;;4.88;3.80;;;30.80;92.00;;;;;;5070934;28;20045;-53
2023/06/15 13:30:29;;;;;;;4.75;3.15;;;31.00;92.50;;;;;;5070889;28;20041;-50
2023/06/15 13:33:33;;;;;;;3.83;3.10;;;31.50;92.20;;;;;;5069549;28;20036;-52
2023/06/15 13:36:38;;;;;;;6.30;3.72;;;31.60;91.50;;;;;;5062753;28;20371;-52
2023/06/15 13:39:42;;;;;;;8.85;3.58;;;31.70;92.80;;;;;;5065564;28;20419;-57
2023/06/15 13:42:46;;;;;;;6.13;3.47;;;31.90;92.10;;;;;;5058445;28;20071;-52
2023/06/15 13:45:50;;;;;;;3.42;3.03;;;32.10;92.20;;;;;;5065711;28;20032;-56
2023/06/15 13:48:55;;;;;;;6.25;3.60;;;32.00;92.20;;;;;;5069468;28;20041;-50
2023/06/15 13:52:00;;;;;;;5.15;3.40;;;31.70;91.90;;;;;;5064267;28;20438;-52
2023/06/15 13:55:05;;;;;;;6.90;3.78;;;31.20;92.20;;;;;;5065516;28;20063;-53
2023/06/15 13:58:08;;;;;;;5.85;3.55;;;31.10;92.90;;;;;;5067487;28;20043;-52
2023/06/15 14:01:12;;;;;;;6.50;3.15;;;30.60;92.40;;;;;;5058693;28;20044;-51
2023/06/15 14:04:16;;;;;;;5.82;3.50;;;30.50;92.60;;;;;;5069955;28;20041;-51
2023/06/15 14:07:20;;;;;;;5.57;3.70;;;30.60;92.60;;;;;;5064781;28;20039;-50
2023/06/15 14:10:24;;;;;;;5.30;3.72;;;30.20;92.60;;;;;;5060506;28;20044;-51
2023/06/15 14:13:28;;;;;;;3.92;3.50;;;30.20;92.90;;;;;;5060431;28;20045;-50
2023/06/15 14:16:32;;;;;;;6.35;3.67;;;30.00;93.00;;;;;;5066545;28;20044;-55
2023/06/15 14:19:37;;;;;;;6.25;3.85;;;29.80;93.10;;;;;;5066430;28;20256;-54
2023/06/15 14:22:41;;;;;;;8.00;4.00;;;29.80;93.00;;;;;;5068160;28;20043;-53
2023/06/15 14:25:45;;;;;;;4.95;3.60;;;29.60;92.90;;;;;;5054124;28;20048;-54
2023/06/15 14:28:49;;;;;;;8.30;3.75;;;29.20;93.10;;;;;;5069276;28;20107;-51
2023/06/15 14:31:54;;;;;;;8.80;4.25;;;29.10;93.30;;;;;;5067983;28;20422;-58
2023/06/15 14:34:58;;;;;;;6.95;4.38;;;29.20;93.70;;;;;;5061862;28;20240;-56
2023/06/15 14:38:02;;;;;;;6.47;4.28;;;29.20;93.60;;;;;;5061688;28;20039;-53
2023/06/15 14:41:06;;;;;;;5.93;4.18;;;29.70;93.70;;;;;;5060746;28;20037;-56
2023/06/15 14:44:11;;;;;;;8.77;3.70;;;29.50;94.30;;;;;;5064779;28;20051;-53
2023/06/15 14:47:17;;;;;;;7.75;4.20;;;29.40;94.30;;;;;;5060931;28;20402;-52
2023/06/15 14:50:21;;;;;;;6.55;4.10;;;29.40;94.40;;;;;;5059577;28;20407;-53
2023/06/15 14:53:25;;;;;;;5.00;3.58;;;29.40;94.00;;;;;;5062929;28;20407;-57
2023/06/15 14:56:29;;;;;;;4.82;3.75;;;29.40;93.90;;;;;;5059550;28;20048;-53
2023/06/15 14:59:34;;;;;;;4.55;3.78;;;29.50;93.70;;;;;;5062143;28;20032;-52
2023/06/15 15:02:37;;;;;;;6.53;3.90;;;29.30;93.10;;;;;;5067204;28;20040;-57
2023/06/15 15:05:42;;;;;;;4.70;3.72;;;29.10;93.10;;;;;;5062379;28;20036;-51
2023/06/15 15:08:47;;;;;;;6.72;4.00;;;29.00;93.50;;;;;;5066393;28;20036;-58
2023/06/15 15:11:51;;;;;;;7.28;4.10;;;29.10;93.50;;;;;;5066007;28;20433;-54
2023/06/15 15:14:59;;;;;;;7.78;3.72;;;29.00;93.50;;;;;;5060626;28;20040;-56
2023/06/15 15:18:03;;;;;;;6.18;3.95;;;29.00;93.70;;;;;;5066384;28;20506;-55
2023/06/15 15:21:07;;;;;;;7.47;4.03;;;29.50;93.90;;;;;;5069409;28;20041;-53
2023/06/15 15:24:11;;;;;;;5.20;3.95;;;29.80;93.50;;;;;;5069098;28;20047;-57
2023/06/15 15:27:15;;;;;;;5.85;4.07;;;29.90;93.40;;;;;;5063426;28;20037;-58
2023/06/15 15:30:21;;;;;;;11.35;4.10;;;29.70;93.70;;;;;;5061904;28;20418;-54
2023/06/15 15:33:25;;;;;;;5.65;3.75;;;29.70;94.10;;;;;;5062945;28;20048;-56
2023/06/15 15:36:30;;;;;;;7.25;4.35;;;29.70;93.90;;;;;;5067291;28;20051;-55
2023/06/15 15:39:34;;;;;;;9.60;4.43;;;29.60;94.00;;;;;;5071868;28;20051;-53
2023/06/15 15:42:38;;;;;;;10.23;4.30;;;29.30;94.30;;;;;;5068617;28;20047;-54
2023/06/15 15:45:42;;;;;;;9.48;4.10;;;29.40;94.30;;;;;;5065436;28;20040;-54
2023/06/15 15:48:46;;;;;;;5.32;4.30;;;29.30;94.70;;;;;;5066252;28;20048;-55
2023/06/15 15:51:50;;;;;;;10.25;4.68;;;29.10;94.70;;;;;;5070649;28;20044;-53
2023/06/15 15:54:54;;;;;;;6.35;4.80;;;29.10;94.70;;;;;;5070578;28;20040;-56
2023/06/15 15:57:58;;;;;;;6.75;4.40;;;29.20;94.90;;;;;;5067534;28;20051;-56
2023/06/15 16:01:02;;;;;;;8.82;4.57;;;29.00;94.60;;;;;;5069971;28;20039;-51
2023/06/15 16:04:06;;;;;;;6.05;4.15;;;28.90;95.00;;;;;;5068410;28;20040;-57